Time;durP1;ratioP1;P1;durP2;ratioP2;P2;SDS_P1;SDS_P2;PMS_P1;PMS_P2;Temp;Humidity;BMP_temperature;BMP_pressure;BME280_temperature;BME280_humidity;BME280_pressure;Samples;Min_cycle;Max_cycle;Signal;HPM_P1;HPM_P2
2023/01/19 00:00:18;;;;;;;13.87;12.03;;;;;;;;;;5051702;28;20469;-75
2023/01/19 00:02:47;;;;;;;14.47;12.97;;;;;;;;;;5051364;28;20789;-75
2023/01/19 00:05:14;;;;;;;14.83;12.33;;;;;;;;;;5050693;28;20441;-75
2023/01/19 00:07:41;;;;;;;13.63;12.23;;;;;;;;;;5051336;28;20457;-75
2023/01/19 00:10:10;;;;;;;14.87;13.00;;;;;;;;;;5051443;28;20499;-75
2023/01/19 00:12:37;;;;;;;13.53;12.13;;;;;;;;;;5051478;28;20457;-75
2023/01/19 00:15:04;;;;;;;15.27;12.33;;;;;;;;;;5052887;28;20441;-74
2023/01/19 00:17:31;;;;;;;14.97;12.97;;;;;;;;;;5053952;28;20871;-75
2023/01/19 00:20:00;;;;;;;17.50;13.67;;;;;;;;;;5053555;28;20555;-75
2023/01/19 00:22:27;;;;;;;15.87;14.20;;;;;;;;;;5054756;28;20433;-75
2023/01/19 00:24:54;;;;;;;15.77;14.17;;;;;;;;;;5054308;28;20444;-74
2023/01/19 00:27:21;;;;;;;13.87;12.47;;;;;;;;;;5052868;28;20461;-76
2023/01/19 00:29:48;;;;;;;15.27;13.10;;;;;;;;;;5053639;28;20462;-74
2023/01/19 00:32:16;;;;;;;14.50;13.00;;;;;;;;;;5067586;28;20441;-74
2023/01/19 00:34:48;;;;;;;15.13;13.53;;;;;;;;;;5071060;28;20444;-75
2023/01/19 00:37:16;;;;;;;15.53;13.87;;;;;;;;;;5069345;28;20477;-75
2023/01/19 00:39:43;;;;;;;15.90;14.33;;;;;;;;;;5052784;28;20467;-76
2023/01/19 00:44:57;;;;;;;16.47;13.57;;;;;;;;;;5050766;28;20788;-74
2023/01/19 00:47:24;;;;;;;14.93;13.23;;;;;;;;;;5051183;28;20433;-74
2023/01/19 00:49:51;;;;;;;14.47;12.43;;;;;;;;;;5052903;28;20508;-75
2023/01/19 00:52:19;;;;;;;14.20;12.70;;;;;;;;;;5055060;28;20441;-75
2023/01/19 00:54:46;;;;;;;21.10;13.23;;;;;;;;;;5052378;28;20476;-74
2023/01/19 00:57:13;;;;;;;15.33;12.23;;;;;;;;;;5050523;28;20496;-74
2023/01/19 00:59:40;;;;;;;14.27;12.77;;;;;;;;;;5050292;28;20468;-75
2023/01/19 01:02:07;;;;;;;15.60;12.80;;;;;;;;;;5051058;28;20445;-74
2023/01/19 01:04:34;;;;;;;13.90;12.37;;;;;;;;;;5051771;28;20446;-74
2023/01/19 01:07:01;;;;;;;16.90;14.00;;;;;;;;;;5051561;28;20445;-75
2023/01/19 01:09:30;;;;;;;14.20;12.70;;;;;;;;;;5051296;28;20472;-75
2023/01/19 01:11:57;;;;;;;14.40;12.90;;;;;;;;;;5051127;28;20459;-74
2023/01/19 01:14:24;;;;;;;16.20;12.87;;;;;;;;;;5052730;28;20446;-75
2023/01/19 01:16:51;;;;;;;15.17;13.57;;;;;;;;;;5032079;28;20481;-75
2023/01/19 01:19:18;;;;;;;15.20;13.60;;;;;;;;;;5030670;28;20478;-74
2023/01/19 01:21:46;;;;;;;13.73;12.40;;;;;;;;;;5031336;28;20442;-75
2023/01/19 01:24:13;;;;;;;15.93;13.37;;;;;;;;;;5030373;28;20907;-74
2023/01/19 01:26:41;;;;;;;14.80;12.90;;;;;;;;;;5030551;28;20439;-75
2023/01/19 01:29:08;;;;;;;18.10;13.40;;;;;;;;;;5032572;28;20471;-75
2023/01/19 01:31:35;;;;;;;13.87;12.47;;;;;;;;;;5034596;28;20445;-74
2023/01/19 01:34:02;;;;;;;16.10;12.47;;;;;;;;;;5034381;28;20731;-75
2023/01/19 01:36:32;;;;;;;14.27;12.67;;;;;;;;;;5034166;28;20508;-75
2023/01/19 01:38:59;;;;;;;13.23;11.77;;;;;;;;;;5034937;28;20921;-75
2023/01/19 01:41:26;;;;;;;15.60;13.03;;;;;;;;;;5035014;28;20466;-75
2023/01/19 01:43:57;;;;;;;15.10;11.80;;;;;;;;;;5035171;28;20973;-74
2023/01/19 01:46:24;;;;;;;15.30;13.17;;;;;;;;;;5050999;28;20437;-75
2023/01/19 01:48:53;;;;;;;14.27;12.67;;;;;;;;;;5060830;28;20519;-75
2023/01/19 01:51:23;;;;;;;13.60;12.23;;;;;;;;;;5054037;28;20489;-75
2023/01/19 01:53:53;;;;;;;14.20;12.67;;;;;;;;;;5053930;28;20798;-75
2023/01/19 01:56:22;;;;;;;14.47;11.87;;;;;;;;;;5054122;28;20480;-75
2023/01/19 01:58:49;;;;;;;12.70;11.40;;;;;;;;;;5054865;28;20458;-75
2023/01/19 02:04:02;;;;;;;12.67;11.37;;;;;;;;;;5053909;28;20424;-75
2023/01/19 02:06:29;;;;;;;14.30;12.80;;;;;;;;;;5053710;28;20441;-75
2023/01/19 02:14:29;;;;;;;14.23;12.47;;;;;;;;;;5053612;28;20503;-75
2023/01/19 02:16:57;;;;;;;14.03;12.60;;;;;;;;;;5053374;28;20481;-74
2023/01/19 02:19:27;;;;;;;14.33;11.80;;;;;;;;;;5053194;28;20465;-75
2023/01/19 02:21:59;;;;;;;13.77;11.70;;;;;;;;;;5053134;28;20449;-75
2023/01/19 02:24:28;;;;;;;12.90;11.57;;;;;;;;;;5053489;28;20445;-74
2023/01/19 02:26:55;;;;;;;15.40;12.10;;;;;;;;;;5053291;28;20460;-74
2023/01/19 02:29:25;;;;;;;13.00;11.70;;;;;;;;;;5053720;28;20469;-74
2023/01/19 02:31:54;;;;;;;15.17;13.50;;;;;;;;;;5053511;28;20445;-74
2023/01/19 02:34:22;;;;;;;13.30;12.00;;;;;;;;;;5053280;28;20528;-75
2023/01/19 02:36:50;;;;;;;14.27;11.77;;;;;;;;;;5053230;28;21024;-74
2023/01/19 02:39:19;;;;;;;15.10;11.10;;;;;;;;;;5052494;28;20552;-74
2023/01/19 02:41:49;;;;;;;13.27;11.73;;;;;;;;;;5053564;28;20758;-74
2023/01/19 02:44:17;;;;;;;13.00;11.63;;;;;;;;;;5060180;28;20879;-74
2023/01/19 02:46:44;;;;;;;13.77;10.77;;;;;;;;;;5067868;28;20437;-74
2023/01/19 02:49:12;;;;;;;13.80;11.17;;;;;;;;;;5069554;28;20489;-73
2023/01/19 02:51:39;;;;;;;12.67;11.37;;;;;;;;;;5068556;28;20454;-74
2023/01/19 02:54:13;;;;;;;16.30;13.47;;;;;;;;;;5067409;28;20921;-75
2023/01/19 02:57:04;;;;;;;12.73;11.30;;;;;;;;;;5068243;28;20473;-74
2023/01/19 02:59:38;;;;;;;15.10;12.03;;;;;;;;;;5066272;28;20466;-74
2023/01/19 03:02:11;;;;;;;16.97;12.40;;;;;;;;;;5055858;28;20456;-74
2023/01/19 03:04:45;;;;;;;13.73;11.20;;;;;;;;;;5063914;28;20438;-74
2023/01/19 03:07:14;;;;;;;13.13;11.40;;;;;;;;;;5070955;28;20433;-74
2023/01/19 03:09:43;;;;;;;14.30;11.80;;;;;;;;;;5070900;28;20489;-74
2023/01/19 03:12:15;;;;;;;13.53;11.67;;;;;;;;;;5070978;28;20456;-74
2023/01/19 03:14:45;;;;;;;12.33;11.03;;;;;;;;;;5069839;28;20438;-73
2023/01/19 03:17:13;;;;;;;13.40;11.93;;;;;;;;;;5050746;28;20513;-74
2023/01/19 03:19:41;;;;;;;13.80;11.50;;;;;;;;;;5049817;28;20463;-75
2023/01/19 03:22:12;;;;;;;14.13;11.43;;;;;;;;;;5038384;28;20442;-75
2023/01/19 03:24:40;;;;;;;13.70;12.00;;;;;;;;;;5032067;28;20513;-75
2023/01/19 03:27:10;;;;;;;13.50;11.00;;;;;;;;;;5031869;28;20454;-75
2023/01/19 03:29:40;;;;;;;12.43;11.13;;;;;;;;;;5031650;28;20462;-74
2023/01/19 03:32:09;;;;;;;14.47;12.00;;;;;;;;;;5031894;28;20446;-75
2023/01/19 03:34:37;;;;;;;15.43;12.27;;;;;;;;;;5031864;28;20454;-75
2023/01/19 03:37:05;;;;;;;14.43;12.27;;;;;;;;;;5032177;28;20989;-73
2023/01/19 03:39:32;;;;;;;13.27;11.87;;;;;;;;;;5031961;28;20469;-74
2023/01/19 03:42:00;;;;;;;14.80;11.13;;;;;;;;;;5033177;28;20496;-75
2023/01/19 03:44:29;;;;;;;12.87;11.03;;;;;;;;;;5035403;28;20454;-74
2023/01/19 03:46:59;;;;;;;14.80;11.20;;;;;;;;;;5037343;28;20445;-75
2023/01/19 03:49:26;;;;;;;12.50;11.20;;;;;;;;;;5034455;28;20486;-75
2023/01/19 03:51:55;;;;;;;12.90;10.90;;;;;;;;;;5030761;28;20549;-74
2023/01/19 03:54:22;;;;;;;12.13;10.83;;;;;;;;;;5031439;28;20450;-75
2023/01/19 03:56:51;;;;;;;12.33;10.60;;;;;;;;;;5032062;28;20482;-75
2023/01/19 03:59:18;;;;;;;13.00;11.10;;;;;;;;;;5032596;28;20485;-74
2023/01/19 04:01:46;;;;;;;12.07;10.60;;;;;;;;;;5033980;28;20451;-74
2023/01/19 04:04:15;;;;;;;12.70;10.33;;;;;;;;;;5032356;28;20447;-74
2023/01/19 04:06:42;;;;;;;12.23;10.80;;;;;;;;;;5033773;28;20466;-75
2023/01/19 04:09:09;;;;;;;11.63;10.43;;;;;;;;;;5033613;28;20462;-74
2023/01/19 04:11:36;;;;;;;10.90;9.80;;;;;;;;;;5031733;28;20446;-75
2023/01/19 04:14:03;;;;;;;13.43;11.10;;;;;;;;;;5031150;28;20454;-74
2023/01/19 04:16:30;;;;;;;12.17;9.97;;;;;;;;;;5047314;28;20527;-75
2023/01/19 04:18:57;;;;;;;11.50;10.30;;;;;;;;;;5050982;28;20471;-76
2023/01/19 04:21:26;;;;;;;11.43;10.17;;;;;;;;;;5050943;28;21157;-75
2023/01/19 04:23:53;;;;;;;12.43;10.63;;;;;;;;;;5050967;28;20449;-74
2023/01/19 04:26:20;;;;;;;16.40;10.93;;;;;;;;;;5051095;28;20544;-74
2023/01/19 04:28:47;;;;;;;14.73;11.20;;;;;;;;;;5050388;28;20469;-74
2023/01/19 04:31:14;;;;;;;11.63;9.77;;;;;;;;;;5050675;28;20445;-74
2023/01/19 04:33:41;;;;;;;12.30;11.00;;;;;;;;;;5050173;28;20933;-75
2023/01/19 04:36:09;;;;;;;12.50;11.30;;;;;;;;;;5050965;28;20441;-74
2023/01/19 04:38:37;;;;;;;13.83;10.67;;;;;;;;;;5050722;28;20485;-74
2023/01/19 04:41:04;;;;;;;14.13;11.50;;;;;;;;;;5051306;28;20446;-75
2023/01/19 04:43:31;;;;;;;12.30;10.60;;;;;;;;;;5050948;28;20450;-74
2023/01/19 04:45:58;;;;;;;13.00;10.83;;;;;;;;;;5051085;28;20441;-75
2023/01/19 04:48:26;;;;;;;14.90;11.53;;;;;;;;;;5050217;28;20446;-74
2023/01/19 04:50:53;;;;;;;16.53;11.90;;;;;;;;;;5050073;28;20449;-75
2023/01/19 04:53:20;;;;;;;15.77;11.50;;;;;;;;;;5050550;28;20453;-74
2023/01/19 04:55:48;;;;;;;13.93;12.00;;;;;;;;;;5050271;28;20511;-75
2023/01/19 04:58:15;;;;;;;15.07;11.43;;;;;;;;;;5051065;28;20485;-75
2023/01/19 05:00:42;;;;;;;13.20;11.80;;;;;;;;;;5052568;28;20453;-74
2023/01/19 05:03:09;;;;;;;14.10;11.73;;;;;;;;;;5059404;28;20452;-74
2023/01/19 05:05:36;;;;;;;14.30;12.40;;;;;;;;;;5061452;28;20945;-73
2023/01/19 05:08:03;;;;;;;15.00;12.20;;;;;;;;;;5060378;28;20438;-74
2023/01/19 05:10:30;;;;;;;13.70;12.13;;;;;;;;;;5063096;28;20484;-73
2023/01/19 05:12:59;;;;;;;14.70;11.60;;;;;;;;;;5055204;28;20442;-74
2023/01/19 05:15:26;;;;;;;15.33;12.07;;;;;;;;;;5050337;28;20453;-75
2023/01/19 05:17:56;;;;;;;14.40;12.23;;;;;;;;;;5050156;28;20484;-75
2023/01/19 05:20:23;;;;;;;16.83;11.97;;;;;;;;;;5050127;28;20850;-74
2023/01/19 05:22:51;;;;;;;14.07;12.60;;;;;;;;;;5050331;28;20906;-74
2023/01/19 05:25:18;;;;;;;15.83;12.00;;;;;;;;;;5050129;28;20438;-74
2023/01/19 05:27:45;;;;;;;16.87;12.57;;;;;;;;;;5050146;28;20849;-75
2023/01/19 05:30:14;;;;;;;13.43;11.53;;;;;;;;;;5050038;28;20473;-74
2023/01/19 05:32:41;;;;;;;14.00;11.43;;;;;;;;;;5049770;28;20437;-74
2023/01/19 05:35:08;;;;;;;14.80;12.93;;;;;;;;;;5051194;28;20457;-74
2023/01/19 05:37:35;;;;;;;13.50;12.10;;;;;;;;;;5054486;28;20480;-75
2023/01/19 05:40:02;;;;;;;14.50;12.40;;;;;;;;;;5065499;28;20473;-75
2023/01/19 05:42:30;;;;;;;13.57;11.87;;;;;;;;;;5066869;28;20449;-74
2023/01/19 05:44:58;;;;;;;14.37;12.80;;;;;;;;;;5054290;28;20446;-74
2023/01/19 05:47:26;;;;;;;19.77;15.30;;;;;;;;;;5050750;28;20485;-74
2023/01/19 05:49:54;;;;;;;14.73;11.87;;;;;;;;;;5050217;28;20468;-75
2023/01/19 05:52:21;;;;;;;14.07;11.90;;;;;;;;;;5049883;28;20495;-74
2023/01/19 05:54:48;;;;;;;13.73;12.23;;;;;;;;;;5050576;28;20518;-76
2023/01/19 05:57:15;;;;;;;15.83;13.57;;;;;;;;;;5050678;28;20477;-74
2023/01/19 05:59:42;;;;;;;15.13;13.30;;;;;;;;;;5050246;28;20514;-74
2023/01/19 06:02:09;;;;;;;15.47;12.20;;;;;;;;;;5050145;28;20456;-75
2023/01/19 06:04:37;;;;;;;14.17;12.30;;;;;;;;;;5049636;28;20495;-74
2023/01/19 06:07:05;;;;;;;13.57;12.03;;;;;;;;;;5049953;28;20456;-75
2023/01/19 06:09:32;;;;;;;14.97;11.27;;;;;;;;;;5049605;28;20468;-74
2023/01/19 06:11:59;;;;;;;13.93;11.63;;;;;;;;;;5049638;28;20445;-75
2023/01/19 06:14:26;;;;;;;15.43;11.63;;;;;;;;;;5050246;28;20445;-74
2023/01/19 06:16:54;;;;;;;13.20;11.80;;;;;;;;;;5033839;28;20453;-75
2023/01/19 06:19:21;;;;;;;12.90;11.60;;;;;;;;;;5033462;28;20470;-75
2023/01/19 06:21:51;;;;;;;16.13;11.70;;;;;;;;;;5033660;28;20560;-74
2023/01/19 06:24:18;;;;;;;17.00;13.97;;;;;;;;;;5032956;28;20465;-74
2023/01/19 06:26:45;;;;;;;15.53;13.10;;;;;;;;;;5033025;28;20520;-74
2023/01/19 06:29:13;;;;;;;19.57;12.80;;;;;;;;;;5033091;28;20465;-75
2023/01/19 06:31:40;;;;;;;19.67;13.27;;;;;;;;;;5033148;28;20524;-76
2023/01/19 06:34:07;;;;;;;16.50;13.63;;;;;;;;;;5033363;28;20449;-74
2023/01/19 06:36:34;;;;;;;13.47;11.57;;;;;;;;;;5033230;28;20504;-74
2023/01/19 06:39:04;;;;;;;13.47;12.07;;;;;;;;;;5033646;28;20529;-75
2023/01/19 06:41:32;;;;;;;15.03;12.80;;;;;;;;;;5035506;28;20438;-75
2023/01/19 06:43:59;;;;;;;17.23;11.40;;;;;;;;;;5034179;28;20434;-74
2023/01/19 06:46:26;;;;;;;12.53;11.30;;;;;;;;;;5032835;28;20469;-75
2023/01/19 06:48:53;;;;;;;13.93;11.43;;;;;;;;;;5038637;28;20513;-73
2023/01/19 06:51:21;;;;;;;20.87;18.67;;;;;;;;;;5052383;28;20480;-75
2023/01/19 06:53:48;;;;;;;16.03;14.50;;;;;;;;;;5053104;28;20453;-75
2023/01/19 06:56:16;;;;;;;18.63;14.63;;;;;;;;;;5055461;28;20460;-74
2023/01/19 06:58:43;;;;;;;15.93;12.90;;;;;;;;;;5053357;28;20489;-74
2023/01/19 07:01:10;;;;;;;16.43;14.20;;;;;;;;;;5054708;28;20445;-74
2023/01/19 07:03:37;;;;;;;15.03;13.53;;;;;;;;;;5056882;28;20450;-74
2023/01/19 07:06:06;;;;;;;15.17;12.87;;;;;;;;;;5061520;28;20453;-75
2023/01/19 07:08:33;;;;;;;12.93;11.67;;;;;;;;;;5052296;28;20525;-75
2023/01/19 07:11:01;;;;;;;14.30;12.80;;;;;;;;;;5058941;28;20448;-74
2023/01/19 07:13:29;;;;;;;15.67;13.10;;;;;;;;;;5051964;28;20521;-74
2023/01/19 07:15:56;;;;;;;13.37;12.07;;;;;;;;;;5052178;28;20441;-75
2023/01/19 07:18:23;;;;;;;14.97;12.00;;;;;;;;;;5052357;28;20477;-76
2023/01/19 07:20:50;;;;;;;18.47;10.93;;;;;;;;;;5052184;28;20454;-75
2023/01/19 07:23:17;;;;;;;14.63;10.60;;;;;;;;;;5053402;28;20457;-74
2023/01/19 07:25:45;;;;;;;13.43;11.03;;;;;;;;;;5052132;28;20453;-74
2023/01/19 07:28:14;;;;;;;13.00;11.63;;;;;;;;;;5051613;28;20540;-75
2023/01/19 07:30:44;;;;;;;13.73;10.67;;;;;;;;;;5052127;28;20458;-75
2023/01/19 07:33:11;;;;;;;12.63;11.20;;;;;;;;;;5051556;28;20557;-74
2023/01/19 07:35:38;;;;;;;13.13;10.93;;;;;;;;;;5052169;28;20445;-74
2023/01/19 07:38:05;;;;;;;13.57;11.33;;;;;;;;;;5052205;28;20476;-75
2023/01/19 07:40:33;;;;;;;13.30;11.10;;;;;;;;;;5052786;28;20467;-75
2023/01/19 07:43:00;;;;;;;16.23;13.47;;;;;;;;;;5052093;28;20473;-75
2023/01/19 07:45:27;;;;;;;15.30;11.00;;;;;;;;;;5052144;28;21011;-76
2023/01/19 07:47:55;;;;;;;10.83;9.83;;;;;;;;;;5051938;28;20499;-76
2023/01/19 07:50:24;;;;;;;12.47;11.17;;;;;;;;;;5051995;28;20674;-75
2023/01/19 07:52:52;;;;;;;10.83;9.73;;;;;;;;;;5051906;28;20506;-74
2023/01/19 07:55:20;;;;;;;11.43;10.23;;;;;;;;;;5052297;28;20499;-73
2023/01/19 07:57:49;;;;;;;11.90;10.20;;;;;;;;;;5052569;28;20481;-76
2023/01/19 08:00:18;;;;;;;11.70;10.30;;;;;;;;;;5051880;28;20885;-74
2023/01/19 08:02:46;;;;;;;11.43;9.60;;;;;;;;;;5052166;28;20445;-76
2023/01/19 08:05:14;;;;;;;11.20;10.03;;;;;;;;;;5052197;28;20827;-74
2023/01/19 08:07:41;;;;;;;10.00;9.00;;;;;;;;;;5053334;28;20441;-75
2023/01/19 08:10:09;;;;;;;11.93;8.90;;;;;;;;;;5052007;28;20465;-74
2023/01/19 08:12:36;;;;;;;8.83;8.00;;;;;;;;;;5051600;28;20449;-75
2023/01/19 08:15:03;;;;;;;10.43;9.33;;;;;;;;;;5051622;28;20964;-76
2023/01/19 08:17:31;;;;;;;11.60;8.30;;;;;;;;;;5052230;28;20889;-74
2023/01/19 08:19:58;;;;;;;11.90;8.70;;;;;;;;;;5051743;28;20477;-75
2023/01/19 08:22:26;;;;;;;11.50;9.27;;;;;;;;;;5052233;28;20979;-76
2023/01/19 08:24:53;;;;;;;10.23;8.63;;;;;;;;;;5051682;28;20449;-74
2023/01/19 08:27:20;;;;;;;10.10;8.43;;;;;;;;;;5051219;28;20492;-74
2023/01/19 08:29:47;;;;;;;10.20;9.10;;;;;;;;;;5051811;28;20465;-75
2023/01/19 08:32:14;;;;;;;10.30;9.27;;;;;;;;;;5051443;28;20461;-75
2023/01/19 08:34:41;;;;;;;11.23;9.00;;;;;;;;;;5070411;28;20475;-75
2023/01/19 08:37:10;;;;;;;9.40;8.50;;;;;;;;;;5071139;28;20447;-75
2023/01/19 08:39:38;;;;;;;13.67;8.90;;;;;;;;;;5071171;28;20582;-76
2023/01/19 08:42:05;;;;;;;9.80;8.80;;;;;;;;;;5071293;28;20445;-75
2023/01/19 08:44:32;;;;;;;11.30;9.00;;;;;;;;;;5071001;28;20970;-75
2023/01/19 08:46:59;;;;;;;9.73;7.97;;;;;;;;;;5063483;28;20445;-74
2023/01/19 08:49:27;;;;;;;8.90;7.80;;;;;;;;;;5051350;28;20470;-75
2023/01/19 08:51:54;;;;;;;8.63;7.73;;;;;;;;;;5050813;28;20490;-75
2023/01/19 08:54:22;;;;;;;10.97;9.83;;;;;;;;;;5050043;28;20457;-75
2023/01/19 08:56:50;;;;;;;9.17;8.33;;;;;;;;;;5050863;28;20914;-75
2023/01/19 08:59:17;;;;;;;12.13;9.57;;;;;;;;;;5051156;28;20488;-75
2023/01/19 09:01:44;;;;;;;13.00;8.67;;;;;;;;;;5051030;28;20506;-75
2023/01/19 09:04:11;;;;;;;12.10;10.40;;;;;;;;;;5052662;28;20448;-75
2023/01/19 09:06:38;;;;;;;13.20;10.07;;;;;;;;;;5068013;28;20437;-75
2023/01/19 09:09:05;;;;;;;10.47;8.00;;;;;;;;;;5063237;28;20462;-75
2023/01/19 09:11:33;;;;;;;10.13;7.80;;;;;;;;;;5051342;28;20512;-75
2023/01/19 09:14:02;;;;;;;11.73;7.13;;;;;;;;;;5050744;28;20449;-75
2023/01/19 09:16:29;;;;;;;8.60;7.77;;;;;;;;;;5050492;28;20555;-74
2023/01/19 09:18:57;;;;;;;9.00;8.10;;;;;;;;;;5050690;28;20487;-76
2023/01/19 09:21:24;;;;;;;8.83;7.87;;;;;;;;;;5050506;28;20453;-74
2023/01/19 09:23:53;;;;;;;10.30;8.00;;;;;;;;;;5050453;28;20823;-76
2023/01/19 09:26:21;;;;;;;8.37;7.57;;;;;;;;;;5051091;28;20654;-75
2023/01/19 09:28:48;;;;;;;7.40;6.80;;;;;;;;;;5050287;28;21115;-75
2023/01/19 09:31:16;;;;;;;9.30;7.80;;;;;;;;;;5050378;28;20456;-75
2023/01/19 09:33:43;;;;;;;8.40;7.57;;;;;;;;;;5050874;28;21107;-75
2023/01/19 09:36:10;;;;;;;9.97;7.10;;;;;;;;;;5053974;28;20456;-75
2023/01/19 09:38:37;;;;;;;7.50;6.87;;;;;;;;;;5054907;28;20987;-75
2023/01/19 09:41:06;;;;;;;7.57;6.80;;;;;;;;;;5050220;28;20452;-75
2023/01/19 09:43:35;;;;;;;7.10;6.40;;;;;;;;;;5050417;28;20823;-75
2023/01/19 09:46:03;;;;;;;8.40;7.57;;;;;;;;;;5050248;28;20937;-75
2023/01/19 09:48:37;;;;;;;6.93;6.43;;;;;;;;;;5050053;28;20460;-75
2023/01/19 09:51:07;;;;;;;8.03;7.23;;;;;;;;;;5055612;28;20450;-74
2023/01/19 09:53:44;;;;;;;7.73;7.00;;;;;;;;;;5055245;28;20578;-74
2023/01/19 09:56:13;;;;;;;8.13;7.40;;;;;;;;;;5055967;28;20504;-75
2023/01/19 09:58:40;;;;;;;8.00;7.20;;;;;;;;;;5055412;28;20939;-75
2023/01/19 10:01:13;;;;;;;7.83;7.13;;;;;;;;;;5053857;28;20958;-76
2023/01/19 10:03:41;;;;;;;7.50;6.80;;;;;;;;;;5055782;28;20472;-74
2023/01/19 10:06:10;;;;;;;8.40;7.50;;;;;;;;;;5059436;28;20444;-75
2023/01/19 10:08:40;;;;;;;7.70;7.00;;;;;;;;;;5054914;28;20460;-75
2023/01/19 10:11:17;;;;;;;8.67;7.77;;;;;;;;;;5054663;28;20433;-75
2023/01/19 10:13:47;;;;;;;10.23;7.37;;;;;;;;;;5054434;28;20452;-75
2023/01/19 10:16:22;;;;;;;9.30;7.50;;;;;;;;;;5041264;28;20452;-75
2023/01/19 10:18:52;;;;;;;7.00;6.20;;;;;;;;;;5035980;28;20482;-76
2023/01/19 10:21:20;;;;;;;10.30;7.10;;;;;;;;;;5035216;28;20443;-75
2023/01/19 10:23:49;;;;;;;7.40;6.73;;;;;;;;;;5034058;28;20492;-75
2023/01/19 10:26:18;;;;;;;9.87;7.80;;;;;;;;;;5033362;28;20447;-75
2023/01/19 10:28:47;;;;;;;7.27;6.67;;;;;;;;;;5034433;28;20476;-76
2023/01/19 10:31:16;;;;;;;7.70;6.90;;;;;;;;;;5037645;28;20457;-75
2023/01/19 10:33:43;;;;;;;8.50;6.80;;;;;;;;;;5037101;28;20445;-76
2023/01/19 10:36:18;;;;;;;7.87;6.87;;;;;;;;;;5037037;28;20442;-76
2023/01/19 10:38:45;;;;;;;7.80;6.63;;;;;;;;;;5034084;28;20489;-76
2023/01/19 10:41:15;;;;;;;7.97;7.17;;;;;;;;;;5034226;28;20456;-75
2023/01/19 10:43:43;;;;;;;9.13;7.70;;;;;;;;;;5033098;28;20449;-74
2023/01/19 10:46:17;;;;;;;7.43;6.73;;;;;;;;;;5033540;28;20456;-76
2023/01/19 10:48:48;;;;;;;8.87;7.47;;;;;;;;;;5033842;28;20464;-76
2023/01/19 10:51:16;;;;;;;9.50;6.60;;;;;;;;;;5033919;28;20980;-76
2023/01/19 10:53:44;;;;;;;9.93;7.60;;;;;;;;;;5033386;28;20455;-75
2023/01/19 10:56:16;;;;;;;10.93;7.37;;;;;;;;;;5033645;28;20452;-74
2023/01/19 10:58:43;;;;;;;7.97;7.17;;;;;;;;;;5033301;28;20497;-75
2023/01/19 11:01:14;;;;;;;8.73;7.50;;;;;;;;;;5033043;28;20444;-76
2023/01/19 11:03:41;;;;;;;8.53;7.43;;;;;;;;;;5032836;28;20446;-77
2023/01/19 11:06:24;;;;;;;9.77;7.23;;;;;;;;;;5033267;28;20453;-77
2023/01/19 11:08:51;;;;;;;8.03;7.23;;;;;;;;;;5038966;28;20545;-75
2023/01/19 11:11:19;;;;;;;9.30;7.00;;;;;;;;;;5045712;28;20511;-75
2023/01/19 11:14:02;;;;;;;8.43;7.67;;;;;;;;;;5045576;28;20937;-75
2023/01/19 11:16:30;;;;;;;7.33;6.63;;;;;;;;;;5059616;28;20459;-74
2023/01/19 11:19:00;;;;;;;8.13;7.43;;;;;;;;;;5053508;28;21003;-75
2023/01/19 11:21:30;;;;;;;8.97;7.20;;;;;;;;;;5052630;28;20471;-75
2023/01/19 11:23:59;;;;;;;7.53;6.73;;;;;;;;;;5050985;28;20452;-74
2023/01/19 11:26:27;;;;;;;11.43;9.03;;;;;;;;;;5051399;28;20446;-75
2023/01/19 11:28:55;;;;;;;8.43;7.53;;;;;;;;;;5051000;28;20972;-75
2023/01/19 11:31:31;;;;;;;7.83;7.03;;;;;;;;;;5051609;28;20438;-76
2023/01/19 11:33:58;;;;;;;8.00;7.20;;;;;;;;;;5051267;28;20442;-74
2023/01/19 11:36:26;;;;;;;7.67;6.93;;;;;;;;;;5056509;28;20927;-76
2023/01/19 11:38:56;;;;;;;7.40;6.70;;;;;;;;;;5071089;28;20486;-75
2023/01/19 11:41:26;;;;;;;6.80;6.20;;;;;;;;;;5071031;28;20532;-75
2023/01/19 11:43:54;;;;;;;7.90;7.20;;;;;;;;;;5072327;28;20440;-75
2023/01/19 11:46:22;;;;;;;7.43;6.73;;;;;;;;;;5072984;28;20444;-76
2023/01/19 11:48:55;;;;;;;7.90;7.17;;;;;;;;;;5071683;28;20463;-75
2023/01/19 11:51:23;;;;;;;13.83;6.90;;;;;;;;;;5070935;28;20450;-74
2023/01/19 11:53:52;;;;;;;9.80;7.30;;;;;;;;;;5070495;28;20790;-74
2023/01/19 11:56:22;;;;;;;8.20;7.10;;;;;;;;;;5070403;28;20450;-75
2023/01/19 11:58:50;;;;;;;7.47;6.77;;;;;;;;;;5070008;28;20522;-75
2023/01/19 12:01:19;;;;;;;8.40;7.50;;;;;;;;;;5070391;28;20455;-75
2023/01/19 12:03:47;;;;;;;7.23;6.63;;;;;;;;;;5069939;28;20478;-75
2023/01/19 12:06:17;;;;;;;8.40;6.80;;;;;;;;;;5070106;28;20479;-76
2023/01/19 12:08:46;;;;;;;7.00;6.40;;;;;;;;;;5069970;28;20496;-75
2023/01/19 12:11:17;;;;;;;8.37;7.30;;;;;;;;;;5070181;28;20951;-75
2023/01/19 12:13:45;;;;;;;22.37;16.60;;;;;;;;;;5069071;28;20453;-75
2023/01/19 12:16:18;;;;;;;147.13;78.70;;;;;;;;;;5056327;28;20907;-76
2023/01/19 12:18:46;;;;;;;11.40;7.50;;;;;;;;;;5049355;28;20857;-75
2023/01/19 12:21:13;;;;;;;8.10;7.20;;;;;;;;;;5050225;28;20456;-74
2023/01/19 12:23:54;;;;;;;9.10;6.90;;;;;;;;;;5049620;28;20449;-76
2023/01/19 12:26:29;;;;;;;8.73;6.40;;;;;;;;;;5049985;28;20467;-75
2023/01/19 12:29:00;;;;;;;6.97;6.27;;;;;;;;;;5049922;28;20464;-75
2023/01/19 12:31:27;;;;;;;7.73;6.93;;;;;;;;;;5053585;28;20836;-75
2023/01/19 12:33:54;;;;;;;6.13;5.63;;;;;;;;;;5054040;28;20457;-76
2023/01/19 12:36:38;;;;;;;7.63;5.43;;;;;;;;;;5052154;28;20534;-75
2023/01/19 12:39:06;;;;;;;6.60;5.90;;;;;;;;;;5063696;28;20510;-76
2023/01/19 12:41:34;;;;;;;5.40;4.90;;;;;;;;;;5063739;28;20499;-74
2023/01/19 12:44:26;;;;;;;8.87;6.20;;;;;;;;;;5051100;28;20436;-75
2023/01/19 12:47:02;;;;;;;8.20;6.60;;;;;;;;;;5036890;28;20458;-75
2023/01/19 12:49:30;;;;;;;5.83;5.33;;;;;;;;;;5049834;28;20468;-74
2023/01/19 12:52:12;;;;;;;7.00;6.30;;;;;;;;;;5049775;28;20448;-73
2023/01/19 12:54:40;;;;;;;5.53;5.03;;;;;;;;;;5051551;28;20468;-74
2023/01/19 12:57:09;;;;;;;6.53;5.77;;;;;;;;;;5051299;28;20443;-74
2023/01/19 12:59:37;;;;;;;6.83;6.13;;;;;;;;;;5050147;28;20978;-75
2023/01/19 13:02:23;;;;;;;6.57;5.87;;;;;;;;;;5051036;28;20789;-75
2023/01/19 13:08:01;;;;;;;6.60;5.80;;;;;;;;;;5086974;28;20572;-74
2023/01/19 13:10:47;;;;;;;6.50;5.53;;;;;;;;;;5087047;28;20465;-75
2023/01/19 13:13:19;;;;;;;6.40;5.80;;;;;;;;;;5087921;28;20469;-76
2023/01/19 13:15:46;;;;;;;6.13;5.53;;;;;;;;;;5087055;28;20511;-77
2023/01/19 13:18:17;;;;;;;9.27;6.07;;;;;;;;;;5086991;28;20453;-75
2023/01/19 13:20:46;;;;;;;8.73;7.83;;;;;;;;;;5086566;28;20485;-76
2023/01/19 13:23:18;;;;;;;7.90;7.20;;;;;;;;;;5086563;28;20942;-76
2023/01/19 13:25:48;;;;;;;8.77;7.90;;;;;;;;;;5087030;28;20484;-75
2023/01/19 13:28:16;;;;;;;9.13;8.30;;;;;;;;;;5086624;28;20438;-74
2023/01/19 13:30:51;;;;;;;9.67;8.80;;;;;;;;;;5086424;28;20439;-74
2023/01/19 13:33:20;;;;;;;9.83;8.90;;;;;;;;;;5085810;28;20440;-74
2023/01/19 13:35:55;;;;;;;9.27;8.23;;;;;;;;;;5085934;28;20443;-75
2023/01/19 13:38:23;;;;;;;11.10;8.60;;;;;;;;;;5086056;28;20445;-74
2023/01/19 13:40:50;;;;;;;9.50;8.60;;;;;;;;;;5086252;28;20469;-74
2023/01/19 13:43:18;;;;;;;9.70;8.70;;;;;;;;;;5085507;28;20454;-74
2023/01/19 13:45:48;;;;;;;10.13;9.07;;;;;;;;;;5085608;28;20510;-75
2023/01/19 13:48:17;;;;;;;9.70;8.80;;;;;;;;;;5085537;28;20853;-75
2023/01/19 13:50:56;;;;;;;14.23;9.27;;;;;;;;;;5085922;28;20451;-75
2023/01/19 13:53:23;;;;;;;9.17;8.10;;;;;;;;;;5085620;28;20960;-75
2023/01/19 13:56:05;;;;;;;8.67;7.80;;;;;;;;;;5085287;28;20535;-75
2023/01/19 13:58:32;;;;;;;10.13;9.10;;;;;;;;;;5086414;28;20550;-75
2023/01/19 14:01:00;;;;;;;9.23;8.07;;;;;;;;;;5086086;28;20468;-75
2023/01/19 14:03:28;;;;;;;9.20;8.30;;;;;;;;;;5085524;28;20443;-74
2023/01/19 14:05:55;;;;;;;9.30;8.40;;;;;;;;;;5085866;28;20486;-75
2023/01/19 14:08:24;;;;;;;9.57;8.57;;;;;;;;;;5088619;28;20447;-75
2023/01/19 14:11:00;;;;;;;8.43;7.60;;;;;;;;;;5089350;28;20562;-74
2023/01/19 14:13:28;;;;;;;9.20;8.40;;;;;;;;;;5086917;28;20549;-76
2023/01/19 14:15:57;;;;;;;9.23;8.33;;;;;;;;;;5080065;28;20444;-76
2023/01/19 14:18:27;;;;;;;8.80;7.63;;;;;;;;;;5062140;28;20455;-75
2023/01/19 14:20:55;;;;;;;9.07;8.27;;;;;;;;;;5057627;28;20956;-75
2023/01/19 14:23:42;;;;;;;8.20;7.37;;;;;;;;;;5053305;28;20447;-77
2023/01/19 14:26:28;;;;;;;8.90;8.00;;;;;;;;;;5051929;28;20485;-75
2023/01/19 14:28:55;;;;;;;14.27;9.70;;;;;;;;;;5051339;28;21020;-75
2023/01/19 14:31:23;;;;;;;9.57;8.70;;;;;;;;;;5051507;28;20991;-76
2023/01/19 14:33:52;;;;;;;9.30;8.30;;;;;;;;;;5051539;28;20463;-75
2023/01/19 14:36:26;;;;;;;8.90;7.90;;;;;;;;;;5052209;28;20448;-76
2023/01/19 14:38:54;;;;;;;8.60;7.80;;;;;;;;;;5051769;28;20473;-76
2023/01/19 14:41:25;;;;;;;13.10;8.40;;;;;;;;;;5052108;28;20456;-75
2023/01/19 14:43:54;;;;;;;8.47;7.73;;;;;;;;;;5052074;28;20522;-76
2023/01/19 14:46:22;;;;;;;10.10;9.10;;;;;;;;;;5063760;28;20474;-75
2023/01/19 14:48:49;;;;;;;10.00;9.00;;;;;;;;;;5072225;28;20479;-75
2023/01/19 14:51:19;;;;;;;10.60;9.53;;;;;;;;;;5072380;28;20453;-74